createdAt,value
2023-05-14T00:00:48.540Z,9.35
2023-05-14T00:03:51.566Z,9.39
2023-05-14T00:06:54.243Z,9.40
2023-05-14T00:09:57.828Z,9.37
2023-05-14T00:13:00.761Z,9.39
2023-05-14T00:16:04.028Z,9.38
2023-05-14T00:19:06.785Z,9.38
2023-05-14T00:22:09.726Z,9.36
2023-05-14T00:25:12.235Z,9.42
2023-05-14T00:28:15.273Z,9.41
2023-05-14T00:31:17.694Z,9.45
2023-05-14T00:34:20.616Z,9.51
2023-05-14T00:37:23.170Z,9.49
2023-05-14T00:40:27.084Z,9.55
2023-05-14T00:43:29.634Z,9.54
2023-05-14T00:46:32.479Z,9.57
2023-05-14T00:49:35.364Z,9.59
2023-05-14T00:52:38.557Z,9.62
2023-05-14T00:55:42.281Z,9.62
2023-05-14T00:58:45.155Z,9.65
2023-05-14T01:01:47.840Z,9.65
2023-05-14T01:04:51.414Z,9.49
2023-05-14T01:08:13.659Z,9.63
2023-05-14T01:11:31.343Z,9.65
2023-05-14T01:14:41.624Z,9.64
2023-05-14T01:17:54.362Z,9.64
2023-05-14T01:20:56.992Z,9.61
2023-05-14T01:23:59.768Z,9.61
2023-05-14T01:27:24.970Z,9.59
2023-05-14T01:30:40.425Z,9.55
2023-05-14T01:33:44.256Z,9.51
2023-05-14T01:36:47.413Z,9.51
2023-05-14T01:39:50.974Z,9.50
2023-05-14T01:42:54.528Z,9.36
2023-05-14T01:45:57.178Z,9.44
2023-05-14T01:49:01.161Z,9.46
2023-05-14T01:52:03.934Z,9.40
2023-05-14T01:55:07.376Z,9.38
2023-05-14T01:58:10.113Z,9.41
2023-05-14T02:01:13.052Z,9.40
2023-05-14T02:04:16.001Z,9.37
2023-05-14T02:07:18.666Z,9.36
2023-05-14T02:10:21.798Z,9.15
2023-05-14T02:13:26.407Z,9.27
2023-05-14T02:16:28.902Z,9.22
2023-05-14T02:19:31.785Z,9.10
2023-05-14T02:22:34.295Z,9.16
2023-05-14T02:25:37.866Z,9.15
2023-05-14T02:28:40.338Z,9.15
2023-05-14T02:31:43.581Z,9.12
2023-05-14T02:34:46.198Z,9.12
2023-05-14T02:37:49.017Z,9.10
2023-05-14T02:40:51.491Z,8.97
2023-05-14T02:43:54.832Z,9.11
2023-05-14T02:46:57.440Z,9.15
2023-05-14T02:50:00.272Z,9.17
2023-05-14T02:53:02.778Z,9.20
2023-05-14T02:56:06.063Z,9.23
2023-05-14T02:59:08.529Z,9.08
2023-05-14T03:02:11.841Z,9.29
2023-05-14T03:05:15.074Z,9.36
2023-05-14T03:08:17.899Z,9.39
2023-05-14T03:11:20.703Z,9.40
2023-05-14T03:14:23.392Z,9.41
2023-05-14T03:17:25.949Z,9.43
2023-05-14T03:20:28.799Z,9.45
2023-05-14T03:23:35.145Z,9.47
2023-05-14T03:26:38.032Z,9.49
2023-05-14T03:29:40.487Z,9.47
2023-05-14T03:32:43.525Z,9.45
2023-05-14T03:35:46.120Z,9.32
2023-05-14T03:38:48.934Z,9.41
2023-05-14T03:41:51.480Z,9.46
2023-05-14T03:44:54.285Z,9.46
2023-05-14T03:47:56.803Z,9.51
2023-05-14T03:50:59.848Z,9.53
2023-05-14T03:54:03.776Z,9.54
2023-05-14T03:57:06.759Z,9.55
2023-05-14T04:00:10.049Z,9.58
2023-05-14T04:03:19.034Z,9.58
2023-05-14T04:06:22.416Z,9.53
2023-05-14T04:09:24.932Z,9.48
2023-05-14T04:12:27.675Z,9.50
2023-05-14T04:15:30.262Z,9.49
2023-05-14T04:18:35.392Z,9.51
2023-05-14T04:21:37.984Z,9.55
2023-05-14T04:24:40.916Z,9.59
2023-05-14T04:27:43.452Z,9.65
2023-05-14T04:30:46.264Z,9.69
2023-05-14T04:33:48.752Z,9.69
2023-05-14T04:36:52.262Z,9.70
2023-05-14T04:39:54.738Z,9.71
2023-05-14T04:42:57.667Z,9.72
2023-05-14T04:46:00.691Z,9.73
2023-05-14T04:49:03.594Z,9.72
2023-05-14T04:52:06.599Z,9.75
2023-05-14T04:55:10.091Z,9.80
2023-05-14T04:58:12.603Z,9.68
2023-05-14T05:01:15.835Z,9.81
2023-05-14T05:04:18.511Z,9.78
2023-05-14T05:07:21.515Z,9.79
2023-05-14T05:10:24.477Z,9.78
2023-05-14T05:13:27.400Z,9.80
2023-05-14T05:16:30.153Z,9.77
2023-05-14T05:19:43.108Z,9.78
2023-05-14T05:22:46.023Z,9.81
2023-05-14T05:25:49.617Z,9.82
2023-05-14T05:28:52.107Z,9.88
2023-05-14T05:31:55.003Z,9.91
2023-05-14T05:34:57.590Z,9.93
2023-05-14T05:38:01.546Z,9.78
2023-05-14T05:41:04.323Z,9.97
2023-05-14T05:44:07.202Z,10.04
2023-05-14T05:47:09.717Z,10.10
2023-05-14T05:50:12.787Z,10.12
2023-05-14T05:53:16.734Z,10.16
2023-05-14T05:56:19.506Z,10.22
2023-05-14T05:59:22.092Z,10.21
2023-05-14T06:02:25.374Z,10.26
2023-05-14T06:05:28.327Z,10.28
2023-05-14T06:08:31.543Z,10.30
2023-05-14T06:11:34.566Z,10.33
2023-05-14T06:14:37.067Z,10.37
2023-05-14T06:17:39.918Z,10.45
2023-05-14T06:20:42.561Z,10.45
2023-05-14T06:23:45.418Z,10.49
2023-05-14T06:26:49.374Z,10.57
2023-05-14T06:29:52.244Z,10.53
2023-05-14T06:32:54.938Z,10.53
2023-05-14T06:36:01.161Z,10.56
2023-05-14T06:39:03.809Z,10.60
2023-05-14T06:42:07.511Z,10.64
2023-05-14T06:45:10.575Z,10.66
2023-05-14T06:48:13.462Z,10.69
2023-05-14T06:51:16.087Z,10.64
2023-05-14T06:54:20.463Z,10.66
2023-05-14T06:57:23.071Z,10.67
2023-05-14T07:00:26.182Z,10.63
2023-05-14T07:03:29.248Z,10.77
2023-05-14T07:06:32.607Z,10.82
2023-05-14T07:09:35.042Z,10.86
2023-05-14T07:12:37.767Z,10.88
2023-05-14T07:15:40.350Z,10.96
2023-05-14T07:18:43.957Z,11.01
2023-05-14T07:21:46.542Z,11.08
2023-05-14T07:24:50.172Z,11.12
2023-05-14T07:27:52.628Z,11.14
2023-05-14T07:30:55.870Z,11.23
2023-05-14T07:33:58.384Z,11.29
2023-05-14T07:37:01.451Z,11.30
2023-05-14T07:40:04.155Z,11.32
2023-05-14T07:43:06.967Z,11.40
2023-05-14T07:46:09.515Z,11.59
2023-05-14T07:49:12.346Z,11.57
2023-05-14T07:52:14.791Z,11.63
2023-05-14T07:55:17.688Z,11.75
2023-05-14T07:58:20.149Z,11.83
2023-05-14T08:01:22.991Z,11.91
2023-05-14T08:04:26.512Z,12.03
2023-05-14T08:07:30.144Z,12.23
2023-05-14T08:10:33.051Z,12.36
2023-05-14T08:13:35.649Z,12.55
2023-05-14T08:16:38.883Z,12.58
2023-05-14T08:19:41.458Z,12.69
2023-05-14T08:22:44.312Z,12.71
2023-05-14T08:25:46.872Z,12.79
2023-05-14T08:28:49.680Z,12.80
2023-05-14T08:31:52.227Z,12.89
2023-05-14T08:34:54.965Z,12.95
2023-05-14T08:37:57.570Z,13.01
2023-05-14T08:41:00.532Z,12.91
2023-05-14T08:44:19.582Z,13.22
2023-05-14T08:47:24.171Z,13.19
2023-05-14T08:50:27.584Z,13.27
2023-05-14T08:53:31.040Z,13.36
2023-05-14T08:56:33.840Z,13.31
2023-05-14T08:59:37.031Z,13.22
2023-05-14T09:02:40.453Z,13.20
2023-05-14T09:05:43.500Z,13.17
2023-05-14T09:08:46.523Z,13.17
2023-05-14T09:11:50.971Z,13.22
2023-05-14T09:14:53.767Z,13.14
2023-05-14T09:17:56.993Z,13.12
2023-05-14T09:20:59.545Z,13.05
2023-05-14T09:24:02.381Z,13.02
2023-05-14T09:27:05.370Z,12.99
2023-05-14T09:30:13.288Z,12.84
2023-05-14T09:33:26.799Z,12.92
2023-05-14T09:36:29.876Z,12.93
2023-05-14T09:39:33.294Z,12.98
2023-05-14T09:42:36.098Z,13.08
2023-05-14T09:45:38.619Z,13.03
2023-05-14T09:48:41.607Z,13.07
2023-05-14T09:51:44.377Z,12.98
2023-05-14T09:54:47.345Z,12.89
2023-05-14T09:57:49.916Z,12.78
2023-05-14T10:00:53.009Z,12.79
2023-05-14T10:03:56.515Z,12.89
2023-05-14T10:07:00.107Z,12.93
2023-05-14T10:10:03.866Z,13.00
2023-05-14T10:13:15.971Z,12.83
2023-05-14T10:16:29.575Z,12.89
2023-05-14T10:19:35.202Z,12.97
2023-05-14T10:22:38.254Z,12.90
2023-05-14T10:25:40.955Z,12.94
2023-05-14T10:28:44.174Z,12.86
2023-05-14T10:31:55.977Z,12.92
2023-05-14T10:34:58.793Z,12.98
2023-05-14T10:38:01.440Z,12.99
2023-05-14T10:41:07.843Z,13.16
2023-05-14T10:44:11.185Z,13.16
2023-05-14T10:47:15.847Z,13.33
2023-05-14T10:50:18.538Z,13.31
2023-05-14T10:53:31.440Z,13.32
2023-05-14T10:56:33.998Z,13.26
2023-05-14T10:59:36.933Z,13.18
2023-05-14T11:02:41.996Z,13.08
2023-05-14T11:05:44.966Z,13.05
2023-05-14T11:08:47.886Z,12.99
2023-05-14T11:11:50.621Z,12.99
2023-05-14T11:14:53.239Z,12.93
2023-05-14T11:17:56.418Z,12.92
2023-05-14T11:21:02.330Z,12.79
2023-05-14T11:24:06.038Z,12.61
2023-05-14T11:27:12.009Z,12.77
2023-05-14T11:30:19.827Z,12.74
2023-05-14T11:33:22.351Z,12.76
2023-05-14T11:36:25.149Z,12.71
2023-05-14T11:39:27.716Z,12.66
2023-05-14T11:42:30.633Z,12.60
2023-05-14T11:45:33.362Z,12.58
2023-05-14T11:48:36.338Z,12.35
2023-05-14T11:51:38.884Z,12.36
2023-05-14T11:54:43.268Z,12.27
2023-05-14T11:57:45.964Z,12.19
2023-05-14T12:00:52.640Z,12.19
2023-05-14T12:03:55.508Z,12.20
2023-05-14T12:06:59.677Z,12.17
2023-05-14T12:10:03.629Z,12.08
2023-05-14T12:13:07.121Z,12.19
2023-05-14T12:16:10.109Z,12.10
2023-05-14T12:19:15.688Z,12.11
2023-05-14T12:22:20.265Z,12.09
2023-05-14T12:25:25.731Z,12.10
2023-05-14T12:28:28.896Z,12.08
2023-05-14T12:31:31.921Z,12.09
2023-05-14T12:34:37.223Z,12.08
2023-05-14T12:37:40.191Z,12.10
2023-05-14T12:40:43.124Z,12.05
2023-05-14T12:43:47.777Z,12.04
2023-05-14T12:46:51.019Z,11.81
2023-05-14T12:49:53.550Z,11.91
2023-05-14T12:52:56.463Z,11.95
2023-05-14T12:55:59.016Z,11.90
2023-05-14T12:59:01.820Z,11.92
2023-05-14T13:02:04.819Z,11.98
2023-05-14T13:05:08.051Z,11.92
2023-05-14T13:08:10.702Z,11.92
2023-05-14T13:11:13.650Z,11.92
2023-05-14T13:14:16.555Z,11.90
2023-05-14T13:17:20.262Z,11.90
2023-05-14T13:20:23.651Z,11.83
2023-05-14T13:23:26.500Z,11.85
2023-05-14T13:26:29.122Z,11.83
2023-05-14T13:29:32.063Z,11.81
2023-05-14T13:32:34.700Z,11.86
2023-05-14T13:35:38.083Z,11.83
2023-05-14T13:38:40.664Z,11.78
2023-05-14T13:41:43.559Z,11.77
2023-05-14T13:44:46.072Z,11.81
2023-05-14T13:47:49.573Z,11.79
2023-05-14T13:50:53.776Z,11.80
2023-05-14T13:53:56.870Z,11.77
2023-05-14T13:56:59.555Z,11.77
2023-05-14T14:00:02.604Z,11.72
2023-05-14T14:03:07.537Z,11.71
2023-05-14T14:06:10.833Z,11.68
2023-05-14T14:09:13.899Z,11.70
2023-05-14T14:12:17.070Z,11.72
2023-05-14T14:15:19.854Z,11.60
2023-05-14T14:18:22.622Z,11.59
2023-05-14T14:21:25.169Z,11.56
2023-05-14T14:24:28.014Z,11.49
2023-05-14T14:27:34.904Z,11.45
2023-05-14T14:30:37.722Z,11.42
2023-05-14T14:33:40.304Z,11.32
2023-05-14T14:36:43.124Z,11.20
2023-05-14T14:39:45.832Z,11.21
2023-05-14T14:42:48.636Z,11.24
2023-05-14T14:45:51.252Z,11.19
2023-05-14T14:48:54.066Z,11.23
2023-05-14T14:51:56.644Z,11.22
2023-05-14T14:54:59.491Z,11.18
2023-05-14T14:58:01.953Z,11.26
2023-05-14T15:01:04.991Z,11.25
2023-05-14T15:04:07.599Z,11.27
2023-05-14T15:07:10.488Z,11.28
2023-05-14T15:10:12.927Z,11.24
2023-05-14T15:13:15.768Z,11.22
2023-05-14T15:16:18.323Z,11.23
2023-05-14T15:19:21.131Z,11.23
2023-05-14T15:22:23.771Z,11.17
2023-05-14T15:25:31.031Z,11.10
2023-05-14T15:28:33.938Z,11.05
2023-05-14T15:31:37.200Z,11.07
2023-05-14T15:34:39.691Z,11.07
2023-05-14T15:37:44.580Z,11.04
2023-05-14T15:40:50.131Z,11.00
2023-05-14T15:43:53.433Z,10.94
2023-05-14T15:46:55.997Z,10.95
2023-05-14T15:50:01.569Z,10.97
2023-05-14T15:53:04.690Z,10.93
2023-05-14T15:56:11.136Z,10.90
2023-05-14T15:59:17.847Z,10.90
2023-05-14T16:02:20.821Z,10.75
2023-05-14T16:05:23.917Z,10.90
2023-05-14T16:08:26.399Z,10.88
2023-05-14T16:11:30.100Z,10.84
2023-05-14T16:14:36.114Z,10.83
2023-05-14T16:17:39.065Z,10.85
2023-05-14T16:20:41.655Z,10.84
2023-05-14T16:23:44.457Z,10.83
2023-05-14T16:26:46.963Z,10.81
2023-05-14T16:29:49.769Z,10.85
2023-05-14T16:32:52.400Z,10.80
2023-05-14T16:35:55.242Z,10.82
2023-05-14T16:39:07.436Z,10.82
2023-05-14T16:42:11.121Z,10.79
2023-05-14T16:45:13.805Z,10.80
2023-05-14T16:48:16.596Z,10.80
2023-05-14T16:51:19.176Z,10.78
2023-05-14T16:54:22.068Z,10.78
2023-05-14T16:57:25.570Z,10.78
2023-05-14T17:00:28.374Z,10.77
2023-05-14T17:03:31.024Z,10.75
2023-05-14T17:06:34.332Z,10.76
2023-05-14T17:09:36.883Z,10.72
2023-05-14T17:12:39.607Z,10.71
2023-05-14T17:15:42.559Z,10.71
2023-05-14T17:18:45.991Z,10.73
2023-05-14T17:21:48.465Z,10.71
2023-05-14T17:24:51.286Z,10.70
2023-05-14T17:27:53.695Z,10.66
2023-05-14T17:30:57.180Z,10.69
2023-05-14T17:33:59.705Z,10.68
2023-05-14T17:37:02.570Z,10.71
2023-05-14T17:40:05.658Z,10.66
2023-05-14T17:43:08.620Z,10.69
2023-05-14T17:46:11.198Z,10.71
2023-05-14T17:49:14.135Z,10.70
2023-05-14T17:52:16.721Z,10.73
2023-05-14T17:55:19.473Z,10.72
2023-05-14T17:58:21.977Z,10.72
2023-05-14T18:01:25.039Z,10.76
2023-05-14T18:04:28.161Z,10.77
2023-05-14T18:07:30.930Z,10.79
2023-05-14T18:10:33.944Z,10.79
2023-05-14T18:13:36.929Z,10.81
2023-05-14T18:16:43.815Z,10.65
2023-05-14T18:19:46.582Z,10.82
2023-05-14T18:22:52.445Z,10.82
2023-05-14T18:25:55.447Z,10.84
2023-05-14T18:28:58.695Z,10.71
2023-05-14T18:32:01.453Z,10.84
2023-05-14T18:35:06.487Z,10.80
2023-05-14T18:38:12.002Z,10.82
2023-05-14T18:41:15.472Z,10.82
2023-05-14T18:44:20.230Z,10.84
2023-05-14T18:47:25.792Z,10.82
2023-05-14T18:50:28.568Z,10.83
2023-05-14T18:53:31.751Z,10.84
2023-05-14T18:56:37.075Z,10.82
2023-05-14T18:59:41.772Z,10.84
2023-05-14T19:02:47.994Z,10.85
2023-05-14T19:05:56.867Z,10.86
2023-05-14T19:08:59.873Z,10.85
2023-05-14T19:12:02.864Z,10.72
2023-05-14T19:15:05.959Z,10.78
2023-05-14T19:18:09.074Z,10.84
2023-05-14T19:21:11.569Z,10.82
2023-05-14T19:24:18.497Z,10.83
2023-05-14T19:27:21.068Z,10.85
2023-05-14T19:30:24.045Z,10.83
2023-05-14T19:33:26.547Z,10.88
2023-05-14T19:36:31.683Z,10.84
2023-05-14T19:39:38.885Z,10.86
2023-05-14T19:42:42.315Z,10.86
2023-05-14T19:45:45.883Z,10.83
2023-05-14T19:48:48.804Z,10.83
2023-05-14T19:51:51.398Z,10.81
2023-05-14T19:54:54.201Z,10.82
2023-05-14T19:57:57.681Z,10.82
2023-05-14T20:01:00.918Z,10.83
2023-05-14T20:04:03.912Z,10.82
2023-05-14T20:07:06.443Z,10.84
2023-05-14T20:10:09.654Z,10.83
2023-05-14T20:13:12.122Z,10.83
2023-05-14T20:16:16.903Z,10.84
2023-05-14T20:19:20.945Z,10.84
2023-05-14T20:22:23.906Z,10.85
2023-05-14T20:25:28.355Z,10.86
2023-05-14T20:28:31.580Z,10.84
2023-05-14T20:31:34.086Z,10.81
2023-05-14T20:34:36.852Z,10.78
2023-05-14T20:37:39.478Z,10.80
2023-05-14T20:40:42.226Z,10.80
2023-05-14T20:43:44.683Z,10.78
2023-05-14T20:46:47.508Z,10.78
2023-05-14T20:49:51.036Z,10.75
2023-05-14T20:52:54.809Z,10.77
2023-05-14T20:55:57.815Z,10.80
2023-05-14T20:59:00.702Z,10.82
2023-05-14T21:02:03.573Z,10.83
2023-05-14T21:05:06.970Z,10.86
2023-05-14T21:08:10.850Z,10.90
2023-05-14T21:11:14.330Z,10.78
2023-05-14T21:14:16.752Z,10.87
2023-05-14T21:17:19.567Z,10.85
2023-05-14T21:20:22.339Z,10.85
2023-05-14T21:23:25.164Z,10.83
2023-05-14T21:26:30.848Z,10.82
2023-05-14T21:29:33.607Z,10.84
2023-05-14T21:32:36.208Z,10.82
2023-05-14T21:35:39.008Z,10.80
2023-05-14T21:38:41.591Z,10.82
2023-05-14T21:41:44.484Z,10.82
2023-05-14T21:44:47.043Z,10.84
2023-05-14T21:47:49.991Z,10.82
2023-05-14T21:50:52.691Z,10.83
2023-05-14T21:53:55.553Z,10.82
2023-05-14T21:56:58.124Z,10.81
2023-05-14T22:00:00.968Z,10.78
2023-05-14T22:03:03.810Z,10.80
2023-05-14T22:06:06.749Z,10.78
2023-05-14T22:09:12.379Z,10.78
2023-05-14T22:12:15.234Z,10.80
2023-05-14T22:15:17.730Z,10.80
2023-05-14T22:18:20.574Z,10.80
2023-05-14T22:21:23.044Z,10.79
2023-05-14T22:24:26.012Z,10.78
2023-05-14T22:27:29.289Z,10.79
2023-05-14T22:30:32.080Z,10.66
2023-05-14T22:33:34.634Z,10.77
2023-05-14T22:36:37.587Z,10.79
2023-05-14T22:39:40.102Z,10.81
2023-05-14T22:42:43.019Z,10.79
2023-05-14T22:45:45.582Z,10.80
2023-05-14T22:48:49.268Z,10.82
2023-05-14T22:51:54.657Z,10.81
2023-05-14T22:54:57.446Z,10.82
2023-05-14T22:57:59.948Z,10.83
2023-05-14T23:01:02.729Z,10.81
2023-05-14T23:04:05.485Z,10.83
2023-05-14T23:07:08.314Z,10.87
2023-05-14T23:10:11.433Z,10.88
2023-05-14T23:13:14.302Z,10.84
2023-05-14T23:16:16.874Z,10.84
2023-05-14T23:19:21.079Z,10.83
2023-05-14T23:22:23.623Z,10.83
2023-05-14T23:25:26.537Z,10.87
2023-05-14T23:28:29.152Z,10.89
2023-05-14T23:31:32.272Z,10.90
2023-05-14T23:34:34.793Z,10.91
2023-05-14T23:37:41.748Z,10.91
2023-05-14T23:40:44.319Z,10.94
2023-05-14T23:43:48.850Z,10.96
2023-05-14T23:46:51.468Z,10.97
2023-05-14T23:49:54.304Z,10.98
2023-05-14T23:52:56.901Z,10.99
2023-05-14T23:55:59.908Z,10.98
2023-05-14T23:59:03.578Z,10.98
